Terminal Aerodrome Forecast
Issued by NWS

Current Version | Previous Version | Text Only | Print | Product List | Glossary Off
Versions: 1 2 3 4 5 6 7 8 9 10 11 12 13 14 15 16 17 18 19 20 21 22 23 24 25 26 27 28 29 30 31 32 33 34 35

385
FTUS41 KRNK 272221 AAB
TAFLWB
TAF AMD
KLWB 272221Z 2722/2818 26010KT 5SM -TSRA OVC035CB
      TEMPO 2722/2723 27015G35KT 2SM TSRA OVC025CB
     FM272300 24007KT P6SM -SHRA BKN050
     FM280300 00000KT P6SM OVC030
     FM281300 VRB03KT P6SM VCSH BKN035=

USA.gov is the U.S. government's official web portal to all federal, state and local government web resources and services.